Laughlin Air Force Base
KDLF : now visible

Airfield :











YOU CAN JOIN US ON...

 
LOGIN :

Register | Disclaimer

   EN    FR    IT 

 









Legend :    VFR   Marginal VFR   IFR   Intensive IFR   Very Intensive IFR
Visi :
Ceiling :
>= 8 km
>= 3000ft
5 to 8 km
1000 to 3000 ft
1500m to 5 km
500 to 1000 ft
800 to 1500m
200 to 500 ft
< 800m
< 200 ft
Symbols :   Thunderstorms  Fog  Heavy snow  Heavy precipitations  Wind > 20 kt







- Airport Elevation : 1082 ft


KDLF - Laughlin Air Force Base

CURRENT METAR :
  • 201956Z 18014G22KT 8SM SCT045 35/22 A2986 RMK AO2A SLP096 T03450218 RVRNO $

EXPIRED METARs :
  • 201857Z AUTO 18014G17KT 9SM FEW035 SCT065 33/22 A2989 RMK AO2 WSHFT 49 SLP107 RVRNO $
  • 201856Z 18015KT 9SM FEW035 SCT065 33/22 A2989 RMK AO2A SLP107 T03290220 RVRNO $
  • 201816Z 16008KT 10SM BKN031 BKN041 OVC049 31/23 A2991 RMK AO2A SLP114 RVRNO $
  • 201746Z 15011KT 10SM BKN025 OVC034 30/23 A2992 RMK AO2A BKN V OVC SLP118 RVRNO $

TAF TAF KDLF
Valid from the 20 at 18:00 until the 22 at 00:00 UTC


201800Z 2018/2124 15012G20KT 9999 BKN030 QNH2983INS
BECMG 2019/2020 15015G25KT 9999 VCSH SCT050 QNH2981INS
BECMG 2102/2103 14012KT 9999 NSW SCT065 QNH2987INS
BECMG 2108/2109 13010G15KT 9999 BKN020 QNH2993INS
BECMG 2111/2112 13012G18KT 9999 BKN015 QNH2996INS TX36/2021Z TN24/2112Z
No reported NOTAMs for that airfield.



MET'MAP, your aeronautical weather chart ! - Copyright ORBIFLY December 2007 - Disclaimer

ORBIFLY MET'MAP TEAM :

Programming & Development : Alexandra Zaïnal
Concept & Development : Baudouin d'Aumeries
Co-Development & Prog : Marc-Olivier Méhu
Technical & hardware support : Manuel Goepfert

Contact : metmap@orbifly.com




SOURCES & CREDITS :

   NOAA       Earth
Advisory